sensor_id;sensor_type;location;lat;lon;timestamp;P1;durP1;ratioP1;P2;durP2;ratioP2
19593;SDS011;9944;48.240;16.478;2022-07-10T00:03:51;2.00;;;1.38;;
19593;SDS011;9944;48.240;16.478;2022-07-10T00:07:56;1.65;;;1.20;;
19593;SDS011;9944;48.240;16.478;2022-07-10T00:12:01;1.20;;;1.10;;
19593;SDS011;9944;48.240;16.478;2022-07-10T00:16:04;1.23;;;1.13;;
19593;SDS011;9944;48.240;16.478;2022-07-10T00:20:08;1.20;;;1.10;;
19593;SDS011;9944;48.240;16.478;2022-07-10T00:24:13;1.60;;;1.42;;
19593;SDS011;9944;48.240;16.478;2022-07-10T00:28:17;1.75;;;1.50;;
19593;SDS011;9944;48.240;16.478;2022-07-10T00:32:20;1.73;;;1.30;;
19593;SDS011;9944;48.240;16.478;2022-07-10T00:36:24;1.17;;;1.08;;
19593;SDS011;9944;48.240;16.478;2022-07-10T00:40:27;1.42;;;1.20;;
19593;SDS011;9944;48.240;16.478;2022-07-10T00:44:32;2.25;;;1.00;;
19593;SDS011;9944;48.240;16.478;2022-07-10T00:48:35;1.33;;;1.10;;
19593;SDS011;9944;48.240;16.478;2022-07-10T00:52:39;1.88;;;1.25;;
19593;SDS011;9944;48.240;16.478;2022-07-10T00:56:43;1.73;;;1.10;;
19593;SDS011;9944;48.240;16.478;2022-07-10T01:00:48;1.23;;;1.08;;
19593;SDS011;9944;48.240;16.478;2022-07-10T01:04:51;1.20;;;1.10;;
19593;SDS011;9944;48.240;16.478;2022-07-10T01:08:54;1.15;;;1.05;;
19593;SDS011;9944;48.240;16.478;2022-07-10T01:12:57;1.30;;;1.20;;
19593;SDS011;9944;48.240;16.478;2022-07-10T01:17:02;1.73;;;1.40;;
19593;SDS011;9944;48.240;16.478;2022-07-10T01:25:27;1.45;;;1.25;;
19593;SDS011;9944;48.240;16.478;2022-07-10T01:29:30;1.50;;;1.17;;
19593;SDS011;9944;48.240;16.478;2022-07-10T01:33:33;1.23;;;1.13;;
19593;SDS011;9944;48.240;16.478;2022-07-10T01:37:38;1.55;;;1.45;;
19593;SDS011;9944;48.240;16.478;2022-07-10T01:41:42;1.88;;;1.30;;
19593;SDS011;9944;48.240;16.478;2022-07-10T01:45:45;1.30;;;1.20;;
19593;SDS011;9944;48.240;16.478;2022-07-10T01:49:48;1.38;;;1.20;;
19593;SDS011;9944;48.240;16.478;2022-07-10T01:53:53;1.20;;;1.10;;
19593;SDS011;9944;48.240;16.478;2022-07-10T01:57:56;2.28;;;1.20;;
19593;SDS011;9944;48.240;16.478;2022-07-10T02:02:02;2.08;;;1.60;;
19593;SDS011;9944;48.240;16.478;2022-07-10T02:06:06;1.25;;;1.13;;
19593;SDS011;9944;48.240;16.478;2022-07-10T02:10:10;1.58;;;1.48;;
19593;SDS011;9944;48.240;16.478;2022-07-10T02:14:13;1.20;;;1.10;;
19593;SDS011;9944;48.240;16.478;2022-07-10T02:18:16;1.60;;;1.30;;
19593;SDS011;9944;48.240;16.478;2022-07-10T02:22:20;1.80;;;1.30;;
19593;SDS011;9944;48.240;16.478;2022-07-10T02:26:24;1.40;;;1.10;;
19593;SDS011;9944;48.240;16.478;2022-07-10T02:30:27;1.70;;;1.20;;
19593;SDS011;9944;48.240;16.478;2022-07-10T02:34:31;1.45;;;1.30;;
19593;SDS011;9944;48.240;16.478;2022-07-10T02:38:34;1.35;;;1.17;;
19593;SDS011;9944;48.240;16.478;2022-07-10T02:42:39;1.38;;;1.27;;
19593;SDS011;9944;48.240;16.478;2022-07-10T02:46:42;1.70;;;1.52;;
19593;SDS011;9944;48.240;16.478;2022-07-10T02:50:45;1.30;;;1.20;;
19593;SDS011;9944;48.240;16.478;2022-07-10T02:54:48;1.25;;;1.15;;
19593;SDS011;9944;48.240;16.478;2022-07-10T02:58:53;1.35;;;1.25;;
19593;SDS011;9944;48.240;16.478;2022-07-10T03:02:56;1.65;;;1.27;;
19593;SDS011;9944;48.240;16.478;2022-07-10T03:06:59;1.38;;;1.27;;
19593;SDS011;9944;48.240;16.478;2022-07-10T03:11:03;1.70;;;1.45;;
19593;SDS011;9944;48.240;16.478;2022-07-10T03:15:09;1.95;;;1.30;;
19593;SDS011;9944;48.240;16.478;2022-07-10T03:19:13;1.50;;;1.40;;
19593;SDS011;9944;48.240;16.478;2022-07-10T03:23:16;1.30;;;1.20;;
19593;SDS011;9944;48.240;16.478;2022-07-10T03:27:19;1.63;;;1.48;;
19593;SDS011;9944;48.240;16.478;2022-07-10T03:31:23;1.60;;;1.50;;
19593;SDS011;9944;48.240;16.478;2022-07-10T03:35:27;1.50;;;1.40;;
19593;SDS011;9944;48.240;16.478;2022-07-10T03:39:32;1.65;;;1.30;;
19593;SDS011;9944;48.240;16.478;2022-07-10T03:43:35;1.98;;;1.10;;
19593;SDS011;9944;48.240;16.478;2022-07-10T03:47:40;1.50;;;1.40;;
19593;SDS011;9944;48.240;16.478;2022-07-10T03:51:43;1.30;;;1.20;;
19593;SDS011;9944;48.240;16.478;2022-07-10T03:55:46;1.45;;;1.27;;
19593;SDS011;9944;48.240;16.478;2022-07-10T03:59:50;2.97;;;1.35;;
19593;SDS011;9944;48.240;16.478;2022-07-10T04:03:54;2.08;;;1.10;;
19593;SDS011;9944;48.240;16.478;2022-07-10T04:07:58;1.27;;;1.17;;
19593;SDS011;9944;48.240;16.478;2022-07-10T04:12:02;2.35;;;1.40;;
19593;SDS011;9944;48.240;16.478;2022-07-10T04:16:05;1.60;;;1.45;;
19593;SDS011;9944;48.240;16.478;2022-07-10T04:20:13;1.42;;;1.33;;
19593;SDS011;9944;48.240;16.478;2022-07-10T04:24:16;1.45;;;1.35;;
19593;SDS011;9944;48.240;16.478;2022-07-10T04:28:19;1.58;;;1.30;;
19593;SDS011;9944;48.240;16.478;2022-07-10T04:32:22;1.40;;;1.30;;
19593;SDS011;9944;48.240;16.478;2022-07-10T04:36:27;1.30;;;1.20;;
19593;SDS011;9944;48.240;16.478;2022-07-10T04:40:32;2.05;;;1.50;;
19593;SDS011;9944;48.240;16.478;2022-07-10T04:44:35;1.77;;;1.42;;
19593;SDS011;9944;48.240;16.478;2022-07-10T04:48:39;1.40;;;1.30;;
19593;SDS011;9944;48.240;16.478;2022-07-10T04:52:44;2.35;;;1.33;;
19593;SDS011;9944;48.240;16.478;2022-07-10T04:56:47;2.30;;;1.52;;
19593;SDS011;9944;48.240;16.478;2022-07-10T05:00:51;2.38;;;1.60;;
19593;SDS011;9944;48.240;16.478;2022-07-10T05:04:54;1.55;;;1.40;;
19593;SDS011;9944;48.240;16.478;2022-07-10T05:08:58;1.20;;;1.10;;
19593;SDS011;9944;48.240;16.478;2022-07-10T05:13:01;2.47;;;1.30;;
19593;SDS011;9944;48.240;16.478;2022-07-10T05:17:05;1.60;;;1.35;;
19593;SDS011;9944;48.240;16.478;2022-07-10T05:21:08;2.03;;;1.20;;
19593;SDS011;9944;48.240;16.478;2022-07-10T05:25:13;1.60;;;1.50;;
19593;SDS011;9944;48.240;16.478;2022-07-10T05:29:16;2.10;;;1.65;;
19593;SDS011;9944;48.240;16.478;2022-07-10T05:33:19;1.60;;;1.50;;
19593;SDS011;9944;48.240;16.478;2022-07-10T05:37:22;2.42;;;1.40;;
19593;SDS011;9944;48.240;16.478;2022-07-10T05:41:27;3.63;;;1.55;;
19593;SDS011;9944;48.240;16.478;2022-07-10T05:45:30;1.63;;;1.33;;
19593;SDS011;9944;48.240;16.478;2022-07-10T05:49:33;1.60;;;1.50;;
19593;SDS011;9944;48.240;16.478;2022-07-10T05:53:37;3.67;;;1.60;;
19593;SDS011;9944;48.240;16.478;2022-07-10T05:57:42;4.60;;;1.73;;
19593;SDS011;9944;48.240;16.478;2022-07-10T06:01:45;1.65;;;1.35;;
19593;SDS011;9944;48.240;16.478;2022-07-10T06:05:48;1.65;;;1.50;;
19593;SDS011;9944;48.240;16.478;2022-07-10T06:09:51;2.38;;;1.38;;
19593;SDS011;9944;48.240;16.478;2022-07-10T06:13:56;2.28;;;1.73;;
19593;SDS011;9944;48.240;16.478;2022-07-10T06:17:59;3.55;;;1.70;;
19593;SDS011;9944;48.240;16.478;2022-07-10T06:22:03;1.65;;;1.50;;
19593;SDS011;9944;48.240;16.478;2022-07-10T06:26:24;1.38;;;1.27;;
19593;SDS011;9944;48.240;16.478;2022-07-10T06:30:29;1.67;;;1.40;;
19593;SDS011;9944;48.240;16.478;2022-07-10T06:34:32;1.75;;;1.50;;
19593;SDS011;9944;48.240;16.478;2022-07-10T06:38:35;1.88;;;1.45;;
19593;SDS011;9944;48.240;16.478;2022-07-10T06:42:39;1.70;;;1.60;;
19593;SDS011;9944;48.240;16.478;2022-07-10T06:46:47;1.90;;;1.50;;
19593;SDS011;9944;48.240;16.478;2022-07-10T06:51:12;2.15;;;1.40;;
19593;SDS011;9944;48.240;16.478;2022-07-10T06:55:19;2.55;;;1.50;;
19593;SDS011;9944;48.240;16.478;2022-07-10T06:59:23;2.20;;;1.70;;
19593;SDS011;9944;48.240;16.478;2022-07-10T07:03:27;1.55;;;1.45;;
19593;SDS011;9944;48.240;16.478;2022-07-10T07:07:31;1.88;;;1.70;;
19593;SDS011;9944;48.240;16.478;2022-07-10T07:11:34;1.58;;;1.48;;
19593;SDS011;9944;48.240;16.478;2022-07-10T07:15:37;2.35;;;1.75;;
19593;SDS011;9944;48.240;16.478;2022-07-10T07:19:45;3.60;;;1.50;;
19593;SDS011;9944;48.240;16.478;2022-07-10T07:24:06;3.10;;;1.67;;
19593;SDS011;9944;48.240;16.478;2022-07-10T07:28:09;2.10;;;1.67;;
19593;SDS011;9944;48.240;16.478;2022-07-10T07:32:12;1.60;;;1.40;;
19593;SDS011;9944;48.240;16.478;2022-07-10T07:36:17;1.88;;;1.58;;
19593;SDS011;9944;48.240;16.478;2022-07-10T07:40:21;3.03;;;1.80;;
19593;SDS011;9944;48.240;16.478;2022-07-10T07:44:25;1.58;;;1.42;;
19593;SDS011;9944;48.240;16.478;2022-07-10T07:48:30;2.78;;;1.45;;
19593;SDS011;9944;48.240;16.478;2022-07-10T07:52:34;1.20;;;1.10;;
19593;SDS011;9944;48.240;16.478;2022-07-10T07:56:38;2.55;;;1.52;;
19593;SDS011;9944;48.240;16.478;2022-07-10T08:00:41;1.90;;;1.67;;
19593;SDS011;9944;48.240;16.478;2022-07-10T08:04:45;1.70;;;1.40;;
19593;SDS011;9944;48.240;16.478;2022-07-10T08:08:49;1.52;;;1.25;;
19593;SDS011;9944;48.240;16.478;2022-07-10T08:12:53;1.08;;;0.98;;
19593;SDS011;9944;48.240;16.478;2022-07-10T08:16:57;1.92;;;1.30;;
19593;SDS011;9944;48.240;16.478;2022-07-10T08:21:01;1.38;;;1.10;;
19593;SDS011;9944;48.240;16.478;2022-07-10T08:25:07;1.15;;;1.05;;
19593;SDS011;9944;48.240;16.478;2022-07-10T08:29:11;0.90;;;0.90;;
19593;SDS011;9944;48.240;16.478;2022-07-10T08:33:14;2.25;;;1.52;;
19593;SDS011;9944;48.240;16.478;2022-07-10T08:37:17;1.30;;;1.20;;
19593;SDS011;9944;48.240;16.478;2022-07-10T08:41:23;2.83;;;1.70;;
19593;SDS011;9944;48.240;16.478;2022-07-10T08:45:28;1.40;;;1.30;;
19593;SDS011;9944;48.240;16.478;2022-07-10T08:49:35;0.90;;;0.90;;
19593;SDS011;9944;48.240;16.478;2022-07-10T08:53:38;2.28;;;1.20;;
19593;SDS011;9944;48.240;16.478;2022-07-10T08:57:43;2.83;;;1.30;;
19593;SDS011;9944;48.240;16.478;2022-07-10T09:01:48;1.00;;;0.93;;
19593;SDS011;9944;48.240;16.478;2022-07-10T09:05:52;1.33;;;1.00;;
19593;SDS011;9944;48.240;16.478;2022-07-10T09:09:56;0.95;;;0.82;;
19593;SDS011;9944;48.240;16.478;2022-07-10T09:14:02;2.70;;;1.00;;
19593;SDS011;9944;48.240;16.478;2022-07-10T09:18:09;1.77;;;1.02;;
19593;SDS011;9944;48.240;16.478;2022-07-10T09:22:12;3.47;;;1.25;;
19593;SDS011;9944;48.240;16.478;2022-07-10T09:26:16;1.60;;;1.30;;
19593;SDS011;9944;48.240;16.478;2022-07-10T09:30:32;3.00;;;1.15;;
19593;SDS011;9944;48.240;16.478;2022-07-10T09:34:37;2.58;;;1.20;;
19593;SDS011;9944;48.240;16.478;2022-07-10T09:38:51;1.20;;;1.10;;
19593;SDS011;9944;48.240;16.478;2022-07-10T09:42:56;2.50;;;1.10;;
19593;SDS011;9944;48.240;16.478;2022-07-10T09:47:02;2.33;;;1.10;;
19593;SDS011;9944;48.240;16.478;2022-07-10T09:51:06;1.70;;;1.10;;
19593;SDS011;9944;48.240;16.478;2022-07-10T09:55:10;2.10;;;1.20;;
19593;SDS011;9944;48.240;16.478;2022-07-10T09:59:15;1.77;;;1.27;;
19593;SDS011;9944;48.240;16.478;2022-07-10T10:03:20;4.50;;;1.23;;
19593;SDS011;9944;48.240;16.478;2022-07-10T10:07:24;1.80;;;1.23;;
19593;SDS011;9944;48.240;16.478;2022-07-10T10:11:27;3.78;;;1.65;;
19593;SDS011;9944;48.240;16.478;2022-07-10T10:15:34;1.77;;;1.27;;
19593;SDS011;9944;48.240;16.478;2022-07-10T10:19:40;2.05;;;1.35;;
19593;SDS011;9944;48.240;16.478;2022-07-10T10:24:01;3.22;;;1.33;;
19593;SDS011;9944;48.240;16.478;2022-07-10T10:28:05;1.25;;;1.08;;
19593;SDS011;9944;48.240;16.478;2022-07-10T10:32:16;1.20;;;1.10;;
19593;SDS011;9944;48.240;16.478;2022-07-10T10:40:49;1.50;;;1.40;;
19593;SDS011;9944;48.240;16.478;2022-07-10T10:45:00;1.77;;;1.30;;
19593;SDS011;9944;48.240;16.478;2022-07-10T10:49:47;1.20;;;1.10;;
19593;SDS011;9944;48.240;16.478;2022-07-10T10:54:05;2.20;;;1.45;;
19593;SDS011;9944;48.240;16.478;2022-07-10T10:58:11;1.40;;;0.95;;
19593;SDS011;9944;48.240;16.478;2022-07-10T11:02:20;1.60;;;1.08;;
19593;SDS011;9944;48.240;16.478;2022-07-10T11:06:38;1.42;;;1.10;;
19593;SDS011;9944;48.240;16.478;2022-07-10T11:10:43;1.77;;;1.10;;
19593;SDS011;9944;48.240;16.478;2022-07-10T11:14:50;1.25;;;0.80;;
19593;SDS011;9944;48.240;16.478;2022-07-10T11:18:55;1.27;;;0.95;;
19593;SDS011;9944;48.240;16.478;2022-07-10T11:23:02;1.17;;;0.93;;
19593;SDS011;9944;48.240;16.478;2022-07-10T11:27:19;0.93;;;0.80;;
19593;SDS011;9944;48.240;16.478;2022-07-10T11:31:31;2.55;;;1.10;;
19593;SDS011;9944;48.240;16.478;2022-07-10T11:35:40;1.02;;;0.90;;
19593;SDS011;9944;48.240;16.478;2022-07-10T11:39:43;0.98;;;0.80;;
19593;SDS011;9944;48.240;16.478;2022-07-10T11:43:51;1.50;;;1.15;;
19593;SDS011;9944;48.240;16.478;2022-07-10T11:47:55;1.88;;;0.90;;
19593;SDS011;9944;48.240;16.478;2022-07-10T11:52:00;2.15;;;1.00;;
19593;SDS011;9944;48.240;16.478;2022-07-10T11:56:05;0.70;;;0.70;;
19593;SDS011;9944;48.240;16.478;2022-07-10T12:00:16;1.60;;;0.98;;
19593;SDS011;9944;48.240;16.478;2022-07-10T12:04:25;0.80;;;0.80;;
19593;SDS011;9944;48.240;16.478;2022-07-10T12:08:41;1.35;;;0.73;;
19593;SDS011;9944;48.240;16.478;2022-07-10T12:12:46;1.80;;;0.80;;
19593;SDS011;9944;48.240;16.478;2022-07-10T12:16:53;0.80;;;0.80;;
19593;SDS011;9944;48.240;16.478;2022-07-10T12:20:57;1.08;;;0.90;;
19593;SDS011;9944;48.240;16.478;2022-07-10T12:25:03;0.63;;;0.63;;
19593;SDS011;9944;48.240;16.478;2022-07-10T12:29:11;0.68;;;0.68;;
19593;SDS011;9944;48.240;16.478;2022-07-10T12:33:23;1.45;;;1.00;;
19593;SDS011;9944;48.240;16.478;2022-07-10T12:37:26;1.05;;;0.80;;
19593;SDS011;9944;48.240;16.478;2022-07-10T12:41:29;3.13;;;0.88;;
19593;SDS011;9944;48.240;16.478;2022-07-10T12:45:34;0.75;;;0.75;;
19593;SDS011;9944;48.240;16.478;2022-07-10T12:49:51;1.25;;;0.82;;
19593;SDS011;9944;48.240;16.478;2022-07-10T12:53:56;0.90;;;0.70;;
19593;SDS011;9944;48.240;16.478;2022-07-10T12:58:03;0.88;;;0.88;;
19593;SDS011;9944;48.240;16.478;2022-07-10T13:02:14;1.23;;;0.90;;
19593;SDS011;9944;48.240;16.478;2022-07-10T13:06:26;1.58;;;0.85;;
19593;SDS011;9944;48.240;16.478;2022-07-10T13:10:33;0.80;;;0.80;;
19593;SDS011;9944;48.240;16.478;2022-07-10T13:14:37;1.08;;;0.70;;
19593;SDS011;9944;48.240;16.478;2022-07-10T13:18:41;0.65;;;0.60;;
19593;SDS011;9944;48.240;16.478;2022-07-10T13:22:47;0.63;;;0.63;;
19593;SDS011;9944;48.240;16.478;2022-07-10T13:26:50;0.70;;;0.70;;
19593;SDS011;9944;48.240;16.478;2022-07-10T13:30:59;0.88;;;0.70;;
19593;SDS011;9944;48.240;16.478;2022-07-10T13:35:04;0.60;;;0.60;;
19593;SDS011;9944;48.240;16.478;2022-07-10T13:39:09;0.95;;;0.80;;
19593;SDS011;9944;48.240;16.478;2022-07-10T13:43:12;0.80;;;0.80;;
19593;SDS011;9944;48.240;16.478;2022-07-10T13:47:18;0.80;;;0.80;;
19593;SDS011;9944;48.240;16.478;2022-07-10T13:51:21;0.70;;;0.70;;
19593;SDS011;9944;48.240;16.478;2022-07-10T13:55:26;0.93;;;0.77;;
19593;SDS011;9944;48.240;16.478;2022-07-10T13:59:29;1.45;;;0.65;;
19593;SDS011;9944;48.240;16.478;2022-07-10T14:03:32;0.80;;;0.70;;
19593;SDS011;9944;48.240;16.478;2022-07-10T14:07:35;0.82;;;0.77;;
19593;SDS011;9944;48.240;16.478;2022-07-10T14:11:40;1.13;;;0.90;;
19593;SDS011;9944;48.240;16.478;2022-07-10T14:15:45;1.00;;;0.90;;
19593;SDS011;9944;48.240;16.478;2022-07-10T14:19:50;1.42;;;0.90;;
19593;SDS011;9944;48.240;16.478;2022-07-10T14:23:53;1.60;;;0.80;;
19593;SDS011;9944;48.240;16.478;2022-07-10T14:27:59;0.63;;;0.63;;
19593;SDS011;9944;48.240;16.478;2022-07-10T14:32:02;2.13;;;0.80;;
19593;SDS011;9944;48.240;16.478;2022-07-10T14:36:07;0.70;;;0.70;;
19593;SDS011;9944;48.240;16.478;2022-07-10T14:40:10;1.83;;;0.85;;
19593;SDS011;9944;48.240;16.478;2022-07-10T14:44:16;1.75;;;0.75;;
19593;SDS011;9944;48.240;16.478;2022-07-10T14:48:19;1.83;;;1.17;;
19593;SDS011;9944;48.240;16.478;2022-07-10T14:52:22;0.93;;;0.82;;
19593;SDS011;9944;48.240;16.478;2022-07-10T14:56:27;3.00;;;1.02;;
19593;SDS011;9944;48.240;16.478;2022-07-10T15:00:31;0.80;;;0.80;;
19593;SDS011;9944;48.240;16.478;2022-07-10T15:04:35;0.80;;;0.80;;
19593;SDS011;9944;48.240;16.478;2022-07-10T15:08:38;1.00;;;0.88;;
19593;SDS011;9944;48.240;16.478;2022-07-10T15:12:41;1.15;;;1.05;;
19593;SDS011;9944;48.240;16.478;2022-07-10T15:16:46;0.80;;;0.80;;
19593;SDS011;9944;48.240;16.478;2022-07-10T15:20:50;1.60;;;0.93;;
19593;SDS011;9944;48.240;16.478;2022-07-10T15:24:53;0.80;;;0.80;;
19593;SDS011;9944;48.240;16.478;2022-07-10T15:28:56;1.40;;;0.90;;
19593;SDS011;9944;48.240;16.478;2022-07-10T15:33:01;2.03;;;0.88;;
19593;SDS011;9944;48.240;16.478;2022-07-10T15:37:04;0.98;;;0.98;;
19593;SDS011;9944;48.240;16.478;2022-07-10T15:41:07;1.85;;;1.02;;
19593;SDS011;9944;48.240;16.478;2022-07-10T15:45:11;1.00;;;0.90;;
19593;SDS011;9944;48.240;16.478;2022-07-10T15:49:17;0.95;;;0.70;;
19593;SDS011;9944;48.240;16.478;2022-07-10T15:53:20;1.38;;;1.05;;
19593;SDS011;9944;48.240;16.478;2022-07-10T15:57:23;0.70;;;0.70;;
19593;SDS011;9944;48.240;16.478;2022-07-10T16:01:26;0.75;;;0.73;;
19593;SDS011;9944;48.240;16.478;2022-07-10T16:05:30;0.70;;;0.70;;
19593;SDS011;9944;48.240;16.478;2022-07-10T16:09:35;1.08;;;0.60;;
19593;SDS011;9944;48.240;16.478;2022-07-10T16:13:38;1.48;;;0.75;;
19593;SDS011;9944;48.240;16.478;2022-07-10T16:17:41;0.60;;;0.60;;
19593;SDS011;9944;48.240;16.478;2022-07-10T16:21:48;0.98;;;0.60;;
19593;SDS011;9944;48.240;16.478;2022-07-10T16:25:51;1.00;;;0.47;;
19593;SDS011;9944;48.240;16.478;2022-07-10T16:30:03;0.47;;;0.47;;
19593;SDS011;9944;48.240;16.478;2022-07-10T16:34:06;0.50;;;0.50;;
19593;SDS011;9944;48.240;16.478;2022-07-10T16:38:11;0.57;;;0.50;;
19593;SDS011;9944;48.240;16.478;2022-07-10T16:42:14;0.60;;;0.60;;
19593;SDS011;9944;48.240;16.478;2022-07-10T16:46:17;0.88;;;0.70;;
19593;SDS011;9944;48.240;16.478;2022-07-10T16:50:21;0.70;;;0.60;;
19593;SDS011;9944;48.240;16.478;2022-07-10T16:54:26;0.55;;;0.55;;
19593;SDS011;9944;48.240;16.478;2022-07-10T16:58:29;0.77;;;0.55;;
19593;SDS011;9944;48.240;16.478;2022-07-10T17:02:32;0.75;;;0.50;;
19593;SDS011;9944;48.240;16.478;2022-07-10T17:06:35;0.60;;;0.60;;
19593;SDS011;9944;48.240;16.478;2022-07-10T17:10:42;0.40;;;0.40;;
19593;SDS011;9944;48.240;16.478;2022-07-10T17:14:45;0.50;;;0.50;;
19593;SDS011;9944;48.240;16.478;2022-07-10T17:18:48;0.60;;;0.50;;
19593;SDS011;9944;48.240;16.478;2022-07-10T17:22:52;0.40;;;0.40;;
19593;SDS011;9944;48.240;16.478;2022-07-10T17:26:57;2.35;;;0.52;;
19593;SDS011;9944;48.240;16.478;2022-07-10T17:31:01;0.50;;;0.50;;
19593;SDS011;9944;48.240;16.478;2022-07-10T17:35:05;0.80;;;0.45;;
19593;SDS011;9944;48.240;16.478;2022-07-10T17:39:09;0.88;;;0.50;;
19593;SDS011;9944;48.240;16.478;2022-07-10T17:43:14;0.55;;;0.50;;
19593;SDS011;9944;48.240;16.478;2022-07-10T17:47:17;0.40;;;0.40;;
19593;SDS011;9944;48.240;16.478;2022-07-10T17:51:25;0.43;;;0.43;;
19593;SDS011;9944;48.240;16.478;2022-07-10T17:55:28;0.70;;;0.47;;
19593;SDS011;9944;48.240;16.478;2022-07-10T17:59:33;0.40;;;0.40;;
19593;SDS011;9944;48.240;16.478;2022-07-10T18:03:36;1.08;;;0.50;;
19593;SDS011;9944;48.240;16.478;2022-07-10T18:07:40;0.43;;;0.43;;
19593;SDS011;9944;48.240;16.478;2022-07-10T18:11:43;0.47;;;0.40;;
19593;SDS011;9944;48.240;16.478;2022-07-10T18:15:48;0.38;;;0.38;;
19593;SDS011;9944;48.240;16.478;2022-07-10T18:19:51;0.68;;;0.50;;
19593;SDS011;9944;48.240;16.478;2022-07-10T18:23:58;0.30;;;0.30;;
19593;SDS011;9944;48.240;16.478;2022-07-10T18:28:02;0.40;;;0.30;;
19593;SDS011;9944;48.240;16.478;2022-07-10T18:32:08;0.55;;;0.40;;
19593;SDS011;9944;48.240;16.478;2022-07-10T18:36:11;0.73;;;0.50;;
19593;SDS011;9944;48.240;16.478;2022-07-10T18:40:14;1.25;;;0.57;;
19593;SDS011;9944;48.240;16.478;2022-07-10T18:44:17;0.88;;;0.40;;
19593;SDS011;9944;48.240;16.478;2022-07-10T18:48:28;0.73;;;0.50;;
19593;SDS011;9944;48.240;16.478;2022-07-10T18:52:32;0.55;;;0.50;;
19593;SDS011;9944;48.240;16.478;2022-07-10T18:56:44;0.40;;;0.40;;
19593;SDS011;9944;48.240;16.478;2022-07-10T19:00:47;0.57;;;0.40;;
19593;SDS011;9944;48.240;16.478;2022-07-10T19:04:52;1.40;;;0.52;;
19593;SDS011;9944;48.240;16.478;2022-07-10T19:08:55;0.50;;;0.50;;
19593;SDS011;9944;48.240;16.478;2022-07-10T19:12:58;0.57;;;0.57;;
19593;SDS011;9944;48.240;16.478;2022-07-10T19:17:02;3.22;;;0.50;;
19593;SDS011;9944;48.240;16.478;2022-07-10T19:21:06;0.60;;;0.60;;
19593;SDS011;9944;48.240;16.478;2022-07-10T19:25:17;0.75;;;0.40;;
19593;SDS011;9944;48.240;16.478;2022-07-10T19:29:23;0.40;;;0.40;;
19593;SDS011;9944;48.240;16.478;2022-07-10T19:33:28;0.55;;;0.40;;
19593;SDS011;9944;48.240;16.478;2022-07-10T19:37:33;0.40;;;0.40;;
19593;SDS011;9944;48.240;16.478;2022-07-10T19:41:36;0.50;;;0.50;;
19593;SDS011;9944;48.240;16.478;2022-07-10T19:45:44;0.43;;;0.40;;
19593;SDS011;9944;48.240;16.478;2022-07-10T19:49:47;0.40;;;0.40;;
19593;SDS011;9944;48.240;16.478;2022-07-10T19:53:54;0.45;;;0.45;;
19593;SDS011;9944;48.240;16.478;2022-07-10T19:57:57;0.45;;;0.40;;
19593;SDS011;9944;48.240;16.478;2022-07-10T20:02:01;0.70;;;0.57;;
19593;SDS011;9944;48.240;16.478;2022-07-10T20:06:04;0.32;;;0.32;;
19593;SDS011;9944;48.240;16.478;2022-07-10T20:10:09;0.60;;;0.47;;
19593;SDS011;9944;48.240;16.478;2022-07-10T20:14:13;0.43;;;0.43;;
19593;SDS011;9944;48.240;16.478;2022-07-10T20:18:20;0.40;;;0.40;;
19593;SDS011;9944;48.240;16.478;2022-07-10T20:22:23;0.70;;;0.60;;
19593;SDS011;9944;48.240;16.478;2022-07-10T20:26:28;0.43;;;0.43;;
19593;SDS011;9944;48.240;16.478;2022-07-10T20:30:31;1.55;;;0.70;;
19593;SDS011;9944;48.240;16.478;2022-07-10T20:34:34;0.30;;;0.30;;
19593;SDS011;9944;48.240;16.478;2022-07-10T20:38:37;0.43;;;0.43;;
19593;SDS011;9944;48.240;16.478;2022-07-10T20:42:43;0.80;;;0.60;;
19593;SDS011;9944;48.240;16.478;2022-07-10T20:46:46;1.17;;;0.55;;
19593;SDS011;9944;48.240;16.478;2022-07-10T20:50:50;1.05;;;0.60;;
19593;SDS011;9944;48.240;16.478;2022-07-10T20:54:53;0.50;;;0.50;;
19593;SDS011;9944;48.240;16.478;2022-07-10T20:58:57;0.50;;;0.50;;
19593;SDS011;9944;48.240;16.478;2022-07-10T21:03:05;1.50;;;0.60;;
19593;SDS011;9944;48.240;16.478;2022-07-10T21:07:08;0.50;;;0.50;;
19593;SDS011;9944;48.240;16.478;2022-07-10T21:11:16;0.50;;;0.50;;
19593;SDS011;9944;48.240;16.478;2022-07-10T21:15:24;0.47;;;0.40;;
19593;SDS011;9944;48.240;16.478;2022-07-10T21:19:33;0.80;;;0.50;;
19593;SDS011;9944;48.240;16.478;2022-07-10T21:23:37;0.40;;;0.40;;
19593;SDS011;9944;48.240;16.478;2022-07-10T21:27:43;0.50;;;0.50;;
19593;SDS011;9944;48.240;16.478;2022-07-10T21:31:48;0.93;;;0.75;;
19593;SDS011;9944;48.240;16.478;2022-07-10T21:35:51;1.08;;;0.60;;
19593;SDS011;9944;48.240;16.478;2022-07-10T21:39:54;0.43;;;0.43;;
19593;SDS011;9944;48.240;16.478;2022-07-10T21:43:57;0.60;;;0.60;;
19593;SDS011;9944;48.240;16.478;2022-07-10T21:48:02;0.45;;;0.45;;
19593;SDS011;9944;48.240;16.478;2022-07-10T21:52:06;0.50;;;0.40;;
19593;SDS011;9944;48.240;16.478;2022-07-10T21:56:09;0.50;;;0.50;;
19593;SDS011;9944;48.240;16.478;2022-07-10T22:00:13;2.08;;;0.60;;
19593;SDS011;9944;48.240;16.478;2022-07-10T22:04:18;0.85;;;0.60;;
19593;SDS011;9944;48.240;16.478;2022-07-10T22:08:22;0.50;;;0.50;;
19593;SDS011;9944;48.240;16.478;2022-07-10T22:12:25;0.98;;;0.68;;
19593;SDS011;9944;48.240;16.478;2022-07-10T22:16:28;0.88;;;0.40;;
19593;SDS011;9944;48.240;16.478;2022-07-10T22:20:33;0.63;;;0.60;;
19593;SDS011;9944;48.240;16.478;2022-07-10T22:24:37;0.50;;;0.50;;
19593;SDS011;9944;48.240;16.478;2022-07-10T22:28:40;0.77;;;0.60;;
19593;SDS011;9944;48.240;16.478;2022-07-10T22:32:43;0.77;;;0.70;;
19593;SDS011;9944;48.240;16.478;2022-07-10T22:36:48;0.50;;;0.50;;
19593;SDS011;9944;48.240;16.478;2022-07-10T22:40:51;0.90;;;0.80;;
19593;SDS011;9944;48.240;16.478;2022-07-10T22:44:54;1.33;;;0.70;;
19593;SDS011;9944;48.240;16.478;2022-07-10T22:48:57;0.60;;;0.60;;
19593;SDS011;9944;48.240;16.478;2022-07-10T22:53:02;0.50;;;0.50;;
19593;SDS011;9944;48.240;16.478;2022-07-10T22:57:05;0.50;;;0.50;;
19593;SDS011;9944;48.240;16.478;2022-07-10T23:01:08;0.68;;;0.68;;
19593;SDS011;9944;48.240;16.478;2022-07-10T23:05:13;0.88;;;0.70;;
19593;SDS011;9944;48.240;16.478;2022-07-10T23:09:17;0.70;;;0.70;;
19593;SDS011;9944;48.240;16.478;2022-07-10T23:13:20;0.65;;;0.50;;
19593;SDS011;9944;48.240;16.478;2022-07-10T23:17:23;1.27;;;0.52;;
19593;SDS011;9944;48.240;16.478;2022-07-10T23:21:26;1.00;;;0.40;;
19593;SDS011;9944;48.240;16.478;2022-07-10T23:25:31;0.60;;;0.60;;
19593;SDS011;9944;48.240;16.478;2022-07-10T23:29:34;0.63;;;0.60;;
19593;SDS011;9944;48.240;16.478;2022-07-10T23:33:38;1.13;;;0.85;;
19593;SDS011;9944;48.240;16.478;2022-07-10T23:37:42;0.60;;;0.50;;
19593;SDS011;9944;48.240;16.478;2022-07-10T23:41:46;0.65;;;0.60;;
19593;SDS011;9944;48.240;16.478;2022-07-10T23:45:50;0.52;;;0.52;;
19593;SDS011;9944;48.240;16.478;2022-07-10T23:49:53;1.30;;;0.60;;
19593;SDS011;9944;48.240;16.478;2022-07-10T23:54:12;0.85;;;0.60;;
19593;SDS011;9944;48.240;16.478;2022-07-10T23:58:17;0.50;;;0.50;;
